Time;durP1;ratioP1;P1;durP2;ratioP2;P2;SDS_P1;SDS_P2;PMS_P1;PMS_P2;Temp;Humidity;BMP_temperature;BMP_pressure;BME280_temperature;BME280_humidity;BME280_pressure;Samples;Min_cycle;Max_cycle;Signal;HPM_P1;HPM_P2
2022/03/28 00:00:39;;;;;;;14.32;8.10;;;;;;;8.08;50.54;101103.62;4491495;31;33800;-80
2022/03/28 00:03:07;;;;;;;15.65;7.68;;;;;;;8.09;50.51;101107.97;4491210;31;33612;-80
2022/03/28 00:05:35;;;;;;;13.95;8.18;;;;;;;8.02;50.81;101103.66;4492013;31;33534;-80
2022/03/28 00:08:02;;;;;;;15.85;7.53;;;;;;;7.89;50.90;101113.50;4491100;31;34215;-80
2022/03/28 00:10:30;;;;;;;20.40;8.32;;;;;;;7.85;50.91;101112.66;4477704;31;34131;-80
2022/03/28 00:12:57;;;;;;;17.20;8.65;;;;;;;7.66;51.60;101113.75;4492880;31;34044;-81
2022/03/28 00:15:25;;;;;;;22.83;10.15;;;;;;;7.70;51.15;101107.56;4478738;31;34374;-81
2022/03/28 00:17:53;;;;;;;19.00;9.35;;;;;;;7.80;50.79;101108.34;4478821;31;33763;-81
2022/03/28 00:20:20;;;;;;;20.33;10.05;;;;;;;7.68;51.03;101110.19;4491602;31;34258;-81
2022/03/28 00:22:48;;;;;;;16.65;9.00;;;;;;;7.64;51.20;101108.50;4476946;31;33949;-81
2022/03/28 00:25:16;;;;;;;14.95;8.65;;;;;;;7.64;51.15;101102.34;4491510;31;33886;-81
2022/03/28 00:27:43;;;;;;;15.95;7.68;;;;;;;7.79;50.64;101099.59;4492083;31;33534;-81
2022/03/28 00:30:11;;;;;;;20.33;9.27;;;;;;;7.72;50.66;101100.53;4492356;31;33084;-82
2022/03/28 00:32:39;;;;;;;27.37;11.77;;;;;;;7.72;50.44;101097.91;4464758;31;34013;-80
2022/03/28 00:35:07;;;;;;;21.42;10.50;;;;;;;7.55;50.70;101090.22;4476468;31;32124;-81
2022/03/28 00:37:37;;;;;;;25.27;10.60;;;;;;;7.56;50.67;101086.69;4465491;31;33713;-80
2022/03/28 00:40:06;;;;;;;31.33;12.95;;;;;;;7.48;50.93;101082.41;4491620;31;33506;-81
2022/03/28 00:42:36;;;;;;;26.73;11.82;;;;;;;7.52;50.73;101081.47;4477749;31;32872;-80
2022/03/28 00:45:06;;;;;;;18.98;8.60;;;;;;;7.35;51.17;101085.13;4478176;31;33047;-81
2022/03/28 00:47:34;;;;;;;21.05;11.82;;;;;;;7.19;51.65;101073.03;4491005;31;35231;-81
2022/03/28 00:50:02;;;;;;;27.95;11.60;;;;;;;7.35;51.02;101074.63;4479376;31;34289;-81
2022/03/28 00:52:32;;;;;;;26.35;12.82;;;;;;;7.42;50.79;101065.81;4491117;31;33779;-81
2022/03/28 00:55:01;;;;;;;27.13;12.32;;;;;;;7.40;50.78;101067.56;4477098;31;33813;-81
2022/03/28 00:57:32;;;;;;;24.42;11.45;;;;;;;7.30;50.94;101065.91;4490966;31;33166;-81
2022/03/28 01:00:02;;;;;;;19.52;11.10;;;;;;;7.03;52.08;101071.47;4475493;31;32845;-81
2022/03/28 01:02:30;;;;;;;32.10;12.65;;;;;;;7.02;52.00;101064.44;4492193;31;34143;-81
2022/03/28 01:04:58;;;;;;;21.08;10.30;;;;;;;6.99;52.43;101072.38;4489905;31;34605;-81
2022/03/28 01:07:26;;;;;;;17.42;8.90;;;;;;;7.06;51.68;101067.03;4490191;31;33369;-80
2022/03/28 01:09:56;;;;;;;15.48;7.95;;;;;;;7.16;51.33;101063.44;4491401;31;33577;-80
2022/03/28 01:12:25;;;;;;;19.50;9.43;;;;;;;7.00;51.47;101060.97;4491141;31;33992;-80
2022/03/28 01:14:54;;;;;;;20.62;9.52;;;;;;;6.71;52.34;101059.47;4478337;31;34538;-79
2022/03/28 01:20:10;;;;;;;16.05;8.40;;;;;;;6.75;52.23;101063.81;4482139;31;33299;-80
2022/03/28 01:22:37;;;;;;;15.88;9.30;;;;;;;6.81;52.22;101049.75;4493619;31;34477;-80
2022/03/28 01:25:07;;;;;;;15.60;8.88;;;;;;;6.59;52.53;101049.91;4489275;31;34562;-80
2022/03/28 01:27:37;;;;;;;19.17;9.55;;;;;;;6.68;52.26;101051.59;4490823;31;33829;-80
2022/03/28 01:30:06;;;;;;;14.38;7.35;;;;;;;6.85;51.85;101044.47;4476667;31;32583;-80
2022/03/28 01:32:34;;;;;;;16.12;7.20;;;;;;;6.97;51.28;101042.59;4452346;31;35442;-79
2022/03/28 01:35:01;;;;;;;11.50;7.20;;;;;;;6.93;51.48;101034.78;4492024;31;33535;-80
2022/03/28 01:37:29;;;;;;;19.70;7.70;;;;;;;6.99;51.37;101040.84;4476626;31;32493;-80
2022/03/28 01:39:57;;;;;;;20.33;8.35;;;;;;;6.97;51.44;101039.97;4491864;31;33784;-80
2022/03/28 01:42:24;;;;;;;11.52;5.68;;;;;;;6.87;51.41;101029.56;4478732;31;34574;-80
2022/03/28 01:44:53;;;;;;;11.85;6.45;;;;;;;6.87;51.17;101029.56;4477914;31;33031;-80
2022/03/28 01:47:21;;;;;;;13.98;5.60;;;;;;;6.74;51.78;101033.19;4488562;31;34209;-80
2022/03/28 01:49:48;;;;;;;12.50;6.20;;;;;;;6.84;51.37;101026.13;4479031;31;34412;-80
2022/03/28 01:52:18;;;;;;;10.80;5.40;;;;;;;6.70;51.76;101023.59;4476001;31;33922;-80
2022/03/28 01:54:46;;;;;;;15.55;5.95;;;;;;;6.65;51.97;101022.78;4465750;31;33398;-80
2022/03/28 01:57:13;;;;;;;10.38;5.97;;;;;;;6.51;52.23;101029.87;4477327;31;34067;-80
2022/03/28 01:59:41;;;;;;;15.05;5.87;;;;;;;6.48;52.50;101025.50;4480745;31;33574;-80
2022/03/28 02:02:09;;;;;;;12.68;6.07;;;;;;;6.81;51.32;101020.88;4496896;31;33843;-80
2022/03/28 02:04:37;;;;;;;9.45;5.75;;;;;;;6.59;51.57;101022.78;4482556;31;34112;-80
2022/03/28 02:07:04;;;;;;;9.98;5.18;;;;;;;6.71;51.09;101016.59;4482198;31;32373;-80
2022/03/28 02:09:32;;;;;;;11.50;5.40;;;;;;;6.66;51.31;101024.50;4484737;31;33062;-80
2022/03/28 02:12:00;;;;;;;9.70;5.53;;;;;;;6.69;51.23;101019.22;4495860;31;33919;-80
2022/03/28 02:14:27;;;;;;;9.82;4.93;;;;;;;6.67;51.34;101021.84;4495644;31;33620;-80
2022/03/28 02:16:55;;;;;;;11.55;5.10;;;;;;;6.75;51.03;101018.31;4471060;31;31809;-81
2022/03/28 02:19:23;;;;;;;14.82;5.07;;;;;;;6.62;51.30;101007.91;4474861;31;32518;-82
2022/03/28 02:21:50;;;;;;;10.57;6.32;;;;;;;6.58;51.47;101014.06;4468509;31;33294;-82
2022/03/28 02:24:18;;;;;;;10.70;6.18;;;;;;;6.60;51.31;101009.69;4493436;31;32584;-82
2022/03/28 02:26:45;;;;;;;12.40;5.18;;;;;;;6.41;52.04;101019.44;4484271;31;33152;-82
2022/03/28 02:29:13;;;;;;;13.55;6.45;;;;;;;6.25;52.33;101017.78;4494645;31;33851;-82
2022/03/28 02:31:41;;;;;;;12.05;5.57;;;;;;;6.39;51.92;101010.69;4497257;31;33531;-82
2022/03/28 02:34:08;;;;;;;12.52;5.53;;;;;;;6.41;51.77;101010.72;4494715;31;33904;-82
2022/03/28 02:36:36;;;;;;;10.45;4.72;;;;;;;6.55;51.20;101006.22;4482476;31;33495;-81
2022/03/28 02:39:04;;;;;;;18.17;5.62;;;;;;;6.54;51.11;101008.84;4480815;31;32710;-82
2022/03/28 02:41:32;;;;;;;9.27;5.20;;;;;;;6.46;51.16;101016.78;4495259;31;33578;-82
2022/03/28 02:43:59;;;;;;;8.23;4.28;;;;;;;6.37;51.22;101012.47;4481243;31;33511;-82
2022/03/28 02:46:27;;;;;;;10.98;6.18;;;;;;;6.25;51.49;101011.69;4483401;31;33495;-82
2022/03/28 02:48:55;;;;;;;11.43;5.68;;;;;;;6.08;52.33;101015.28;4494704;31;32780;-82
2022/03/28 02:51:22;;;;;;;9.07;4.10;;;;;;;6.20;51.72;101014.34;4482912;31;33096;-82
2022/03/28 02:53:50;;;;;;;8.00;4.50;;;;;;;6.26;51.44;101014.28;4482618;31;33632;-82
2022/03/28 02:56:18;;;;;;;14.27;4.80;;;;;;;6.38;50.96;101008.97;4498246;31;33433;-82
2022/03/28 02:58:45;;;;;;;10.15;4.37;;;;;;;6.32;51.08;101008.16;4493538;31;34000;-82
2022/03/28 03:01:13;;;;;;;7.93;4.10;;;;;;;6.40;50.60;101004.56;4481205;31;32889;-81
2022/03/28 03:03:41;;;;;;;8.63;3.55;;;;;;;6.26;51.10;101001.16;4495059;31;33927;-81
2022/03/28 03:06:09;;;;;;;9.55;4.18;;;;;;;6.21;51.59;101005.56;4492477;31;32671;-82
2022/03/28 03:08:36;;;;;;;8.50;4.10;;;;;;;6.26;51.23;101006.41;4493604;31;33927;-82
2022/03/28 03:11:04;;;;;;;11.30;4.50;;;;;;;6.11;51.74;101010.00;4483557;31;33487;-81
2022/03/28 03:13:32;;;;;;;7.50;4.00;;;;;;;6.13;51.91;101007.41;4478820;31;33193;-81
2022/03/28 03:15:59;;;;;;;6.30;3.55;;;;;;;5.95;51.82;101012.75;4489136;31;33238;-81
2022/03/28 03:18:28;;;;;;;6.62;3.95;;;;;;;6.04;51.55;101008.31;4480103;31;34544;-80
2022/03/28 03:20:55;;;;;;;6.00;3.33;;;;;;;6.18;51.15;101008.25;4478651;31;33204;-81
2022/03/28 03:23:23;;;;;;;10.77;3.87;;;;;;;6.20;50.91;101011.72;4478834;31;34585;-81
2022/03/28 03:25:51;;;;;;;10.25;4.30;;;;;;;6.08;51.51;101003.94;4465934;31;31838;-82
2022/03/28 03:28:20;;;;;;;12.65;3.78;;;;;;;6.25;51.06;101002.06;4477994;31;33412;-81
2022/03/28 03:30:48;;;;;;;6.87;3.92;;;;;;;6.00;51.81;101003.09;4493300;31;34024;-81
2022/03/28 03:33:16;;;;;;;6.97;4.18;;;;;;;5.82;52.59;101002.28;4477321;31;34479;-80
2022/03/28 03:35:45;;;;;;;6.03;3.85;;;;;;;5.92;52.42;101002.28;4491739;31;33515;-80
2022/03/28 03:38:12;;;;;;;7.62;3.87;;;;;;;5.96;52.34;100994.38;4491546;31;33864;-80
2022/03/28 03:40:40;;;;;;;6.22;3.62;;;;;;;5.79;52.28;100997.06;4494020;31;34179;-81
2022/03/28 03:43:08;;;;;;;11.15;3.92;;;;;;;5.99;51.69;100994.38;4478838;31;33409;-80
2022/03/28 03:45:35;;;;;;;5.90;3.00;;;;;;;5.77;52.07;101004.06;4477021;31;32949;-81
2022/03/28 03:48:03;;;;;;;12.40;3.60;;;;;;;6.02;51.38;100993.47;4494011;31;34622;-81
2022/03/28 03:50:31;;;;;;;8.07;4.15;;;;;;;6.01;51.15;100996.97;4490429;31;33762;-81
2022/03/28 03:52:58;;;;;;;6.65;3.15;;;;;;;5.73;51.78;100996.22;4478409;31;33301;-81
2022/03/28 03:55:26;;;;;;;10.68;3.87;;;;;;;5.83;51.70;100998.78;4490537;31;33390;-79
2022/03/28 03:57:54;;;;;;;11.65;4.00;;;;;;;5.87;51.32;100990.03;4478840;31;33063;-80
2022/03/28 04:00:23;;;;;;;7.87;3.95;;;;;;;5.79;51.78;100990.94;4478452;31;34524;-80
2022/03/28 04:02:50;;;;;;;7.50;4.25;;;;;;;5.72;51.97;100992.72;4479708;31;32794;-80
2022/03/28 04:05:18;;;;;;;10.15;3.95;;;;;;;5.77;51.78;100996.19;4494020;31;33382;-81
2022/03/28 04:07:46;;;;;;;11.50;4.03;;;;;;;5.63;52.05;100995.38;4478062;31;33106;-80
2022/03/28 04:10:14;;;;;;;11.80;4.15;;;;;;;5.79;51.76;100991.84;4477438;31;34602;-81
2022/03/28 04:12:41;;;;;;;9.45;4.00;;;;;;;5.63;52.52;100996.25;4479118;31;34231;-81
2022/03/28 04:15:10;;;;;;;11.02;4.72;;;;;;;5.55;52.89;100995.41;4489310;31;33441;-80
2022/03/28 04:17:43;;;;;;;8.73;4.32;;;;;;;5.81;52.05;100995.31;4491582;31;33767;-81
2022/03/28 04:20:13;;;;;;;13.68;4.55;;;;;;;5.61;52.54;100994.53;4481297;31;34816;-81
2022/03/28 04:22:45;;;;;;;8.93;4.07;;;;;;;5.69;52.52;100994.47;4479579;32;34670;-80
2022/03/28 04:25:14;;;;;;;13.65;3.47;;;;;;;5.76;52.12;100990.97;4477323;31;32952;-80
2022/03/28 04:27:42;;;;;;;10.32;3.80;;;;;;;5.90;51.63;100987.41;4478019;31;33521;-80
2022/03/28 04:30:11;;;;;;;10.50;4.68;;;;;;;5.96;51.42;100983.03;4492063;31;33231;-80
2022/03/28 04:32:38;;;;;;;13.13;4.32;;;;;;;5.70;51.87;100986.63;4478208;31;32549;-80
2022/03/28 04:35:07;;;;;;;13.75;3.95;;;;;;;5.50;52.56;100986.69;4491884;31;33495;-84
2022/03/28 04:37:36;;;;;;;4.85;3.20;;;;;;;5.61;52.67;100978.81;4477733;31;33089;-82
2022/03/28 04:40:06;;;;;;;7.45;3.62;;;;;;;5.76;51.88;100983.97;4492878;31;34659;-83
2022/03/28 04:42:34;;;;;;;8.90;4.25;;;;;;;5.83;51.52;100977.81;4479333;31;33152;-82
2022/03/28 04:45:03;;;;;;;10.27;5.18;;;;;;;5.72;51.94;100984.88;4491065;31;33881;-82
2022/03/28 04:47:31;;;;;;;9.75;4.28;;;;;;;5.71;52.13;100977.03;4489015;31;34175;-82
2022/03/28 04:49:59;;;;;;;13.85;4.03;;;;;;;5.65;52.15;100986.66;4465081;31;33289;-81
2022/03/28 04:52:27;;;;;;;10.45;4.43;;;;;;;5.68;52.12;100990.13;4492488;31;33968;-82
2022/03/28 04:54:54;;;;;;;13.20;5.15;;;;;;;5.85;51.90;100986.56;4477284;31;32771;-82
2022/03/28 04:57:22;;;;;;;9.43;4.93;;;;;;;5.69;52.29;100981.38;4489430;31;33517;-82
2022/03/28 04:59:50;;;;;;;8.38;4.57;;;;;;;5.67;52.51;100991.88;4489621;31;34433;-82
2022/03/28 05:02:17;;;;;;;11.12;4.78;;;;;;;5.66;52.70;100992.75;4475927;31;33917;-82
2022/03/28 05:04:45;;;;;;;9.45;4.60;;;;;;;5.59;52.88;100985.78;4491895;31;32574;-83
2022/03/28 05:07:22;;;;;;;11.70;4.43;;;;;;;5.75;52.42;100994.47;4479102;31;33087;-82
2022/03/28 05:09:50;;;;;;;13.45;5.55;;;;;;;5.56;52.92;100988.44;4492004;31;33719;-82
2022/03/28 05:12:17;;;;;;;13.07;5.78;;;;;;;5.54;53.34;100990.19;4476467;31;33500;-82
2022/03/28 05:14:45;;;;;;;12.52;6.18;;;;;;;5.54;53.83;100990.19;4482643;31;33043;-83
2022/03/28 05:17:15;;;;;;;14.07;5.07;;;;;;;5.80;52.87;100985.72;4489564;31;33683;-82
2022/03/28 05:19:43;;;;;;;10.82;5.30;;;;;;;5.83;52.52;100988.28;4476536;31;33818;-82
2022/03/28 05:22:10;;;;;;;12.93;5.07;;;;;;;5.94;52.09;100984.81;4476160;31;33414;-83
2022/03/28 05:24:38;;;;;;;13.13;5.37;;;;;;;6.08;51.84;100975.97;4475176;31;34164;-82
2022/03/28 05:27:06;;;;;;;10.88;5.85;;;;;;;6.14;51.79;100986.41;4474669;31;34192;-82
2022/03/28 05:29:33;;;;;;;15.20;6.40;;;;;;;6.12;52.58;100984.66;4490481;31;33816;-82
2022/03/28 05:32:01;;;;;;;18.42;5.43;;;;;;;6.53;51.52;100978.25;4487527;31;33068;-81
2022/03/28 05:34:30;;;;;;;15.82;5.60;;;;;;;6.27;52.02;100984.56;4475871;31;33274;-81
2022/03/28 05:37:03;;;;;;;13.62;6.10;;;;;;;6.50;51.49;100975.63;4477571;31;33744;-82
2022/03/28 05:39:35;;;;;;;14.50;6.37;;;;;;;6.70;49.57;100973.72;4478427;31;33591;-81
2022/03/28 05:42:03;;;;;;;11.20;5.60;;;;;;;6.64;49.51;100968.50;4463524;31;34789;-81
2022/03/28 05:44:32;;;;;;;21.83;7.53;;;;;;;6.82;50.26;100970.09;4475539;31;34956;-81
2022/03/28 05:46:59;;;;;;;22.77;7.50;;;;;;;6.89;51.28;100975.28;4489269;31;33776;-81
2022/03/28 05:49:27;;;;;;;21.58;6.85;;;;;;;6.79;51.12;100973.66;4490554;31;34061;-81
2022/03/28 05:51:55;;;;;;;14.15;6.20;;;;;;;7.12;50.51;100974.16;4476731;31;33761;-81
2022/03/28 05:54:22;;;;;;;13.65;6.12;;;;;;;7.16;50.40;100979.37;4488585;31;32743;-81
2022/03/28 05:56:50;;;;;;;15.80;5.60;;;;;;;7.19;50.27;100979.34;4478349;31;34071;-80
2022/03/28 05:59:18;;;;;;;20.70;6.37;;;;;;;7.22;50.85;100967.94;4476009;31;34701;-82
2022/03/28 06:01:46;;;;;;;16.05;6.80;;;;;;;7.57;49.89;100964.03;4490372;31;34078;-81
2022/03/28 06:04:14;;;;;;;15.90;5.65;;;;;;;7.54;49.57;100956.16;4490366;31;33471;-81
2022/03/28 06:06:42;;;;;;;14.32;7.03;;;;;;;7.86;49.15;100966.25;4489370;31;33494;-81
2022/03/28 06:09:10;;;;;;;22.52;7.87;;;;;;;8.25;48.51;100954.25;4476111;31;32803;-81
2022/03/28 06:11:37;;;;;;;20.75;7.55;;;;;;;8.49;46.69;100967.97;4476311;31;33821;-81
2022/03/28 06:14:05;;;;;;;15.43;7.05;;;;;;;8.54;47.22;100961.72;4490451;31;34109;-81
2022/03/28 06:16:33;;;;;;;16.92;7.05;;;;;;;8.61;47.67;100958.09;4490894;31;33867;-81
2022/03/28 06:19:01;;;;;;;19.20;6.50;;;;;;;8.74;45.94;100961.41;4475076;31;34591;-81
2022/03/28 06:21:31;;;;;;;21.73;7.85;;;;;;;8.94;45.83;100961.91;4475063;31;34184;-81
2022/03/28 06:24:06;;;;;;;15.45;5.75;;;;;;;8.82;45.99;100951.56;4476958;31;32672;-81
2022/03/28 06:26:34;;;;;;;10.90;5.37;;;;;;;9.28;44.72;100953.34;4478145;31;32729;-81
2022/03/28 06:29:02;;;;;;;11.77;5.68;;;;;;;9.56;44.52;100944.88;4464801;31;32918;-81
2022/03/28 06:31:29;;;;;;;11.57;5.57;;;;;;;9.70;43.96;100942.81;4478779;31;34535;-81
2022/03/28 06:34:02;;;;;;;9.88;5.10;;;;;;;9.87;43.90;100945.91;4476548;31;33456;-81
2022/03/28 06:36:30;;;;;;;11.15;5.28;;;;;;;10.09;43.01;100940.16;4477023;31;34543;-81
2022/03/28 06:38:58;;;;;;;13.98;5.40;;;;;;;10.24;41.61;100937.19;4486939;31;34666;-80
2022/03/28 06:41:26;;;;;;;16.55;4.87;;;;;;;10.46;41.38;100933.13;4488936;31;34322;-79
2022/03/28 06:43:54;;;;;;;18.23;4.72;;;;;;;10.62;40.72;100938.00;4474139;31;31718;-79
2022/03/28 06:46:22;;;;;;;12.60;5.18;;;;;;;10.75;39.87;100931.50;4475379;31;33544;-79
2022/03/28 06:48:50;;;;;;;15.50;5.45;;;;;;;10.88;38.37;100934.69;4477436;31;33646;-79
2022/03/28 06:51:18;;;;;;;10.27;4.97;;;;;;;11.09;37.65;100935.88;4478774;31;35766;-79
2022/03/28 06:53:48;;;;;;;15.88;5.22;;;;;;;11.29;38.19;100925.59;4478130;31;32925;-79
2022/03/28 06:56:16;;;;;;;13.02;4.70;;;;;;;11.44;36.61;100927.81;4479037;31;34304;-79
2022/03/28 06:58:44;;;;;;;10.55;4.28;;;;;;;11.13;36.67;100926.94;4467442;31;33267;-79
2022/03/28 07:01:12;;;;;;;8.50;3.78;;;;;;;11.67;33.62;100924.47;4490936;31;33762;-79
2022/03/28 07:03:40;;;;;;;9.70;4.10;;;;;;;11.83;33.30;100926.69;4490024;31;33302;-80
2022/03/28 07:06:08;;;;;;;6.75;2.55;;;;;;;11.76;34.55;100925.97;4466978;31;32502;-80
2022/03/28 07:08:35;;;;;;;9.25;3.62;;;;;;;12.30;30.74;100926.03;4486443;31;33892;-79
2022/03/28 07:11:03;;;;;;;4.75;2.78;;;;;;;12.07;28.88;100911.81;4475682;31;33784;-80
2022/03/28 07:13:31;;;;;;;5.37;2.83;;;;;;;12.42;28.89;100908.88;4490571;31;31782;-80
2022/03/28 07:15:59;;;;;;;8.35;4.20;;;;;;;12.47;27.56;100909.56;4492839;31;34551;-79
2022/03/28 07:18:32;;;;;;;9.55;3.35;;;;;;;12.65;27.57;100909.88;4481936;31;33446;-80
2022/03/28 07:21:00;;;;;;;7.62;3.70;;;;;;;13.06;27.95;100903.97;4490809;31;35054;-80
2022/03/28 07:23:30;;;;;;;8.80;4.60;;;;;;;13.63;29.38;100899.22;4490270;31;32775;-80
2022/03/28 07:25:57;;;;;;;6.10;3.15;;;;;;;13.51;29.08;100903.22;4492789;31;33534;-80
2022/03/28 07:28:25;;;;;;;6.78;3.65;;;;;;;12.77;28.49;100901.47;4491845;31;34519;-80
2022/03/28 07:30:53;;;;;;;10.32;3.17;;;;;;;13.19;27.80;100900.84;4492721;31;34493;-80
2022/03/28 07:33:20;;;;;;;7.43;3.65;;;;;;;13.75;26.59;100892.56;4490065;31;34256;-80
2022/03/28 07:35:48;;;;;;;8.40;3.53;;;;;;;13.50;25.78;100895.31;4444638;32;33691;-80
2022/03/28 07:38:16;;;;;;;7.25;3.05;;;;;;;13.65;25.53;100893.84;4477900;31;33280;-80
2022/03/28 07:40:45;;;;;;;8.23;3.28;;;;;;;13.87;25.95;100891.22;4488672;31;34454;-80
2022/03/28 07:43:15;;;;;;;9.90;3.95;;;;;;;13.99;27.65;100899.53;4477615;31;33757;-80
2022/03/28 07:45:43;;;;;;;6.18;3.47;;;;;;;14.54;27.00;100886.66;4479961;31;34154;-80
2022/03/28 07:48:11;;;;;;;10.55;4.12;;;;;;;14.62;26.04;100885.47;4477867;31;33511;-80
2022/03/28 07:50:39;;;;;;;10.90;4.05;;;;;;;14.66;26.56;100895.03;4490313;31;34334;-80
2022/03/28 07:53:07;;;;;;;7.75;3.83;;;;;;;14.47;26.41;100886.94;4466340;31;33007;-80
2022/03/28 07:55:35;;;;;;;8.38;4.32;;;;;;;15.13;25.03;100876.12;4476595;31;34567;-80
2022/03/28 07:58:03;;;;;;;10.07;4.30;;;;;;;14.73;27.54;100883.22;4476268;31;32828;-80
2022/03/28 08:00:31;;;;;;;11.48;4.53;;;;;;;14.84;26.35;100883.59;4492649;31;33477;-80
2022/03/28 08:03:00;;;;;;;10.85;5.05;;;;;;;15.29;25.93;100874.50;4490705;31;33489;-80
2022/03/28 08:05:28;;;;;;;9.65;4.07;;;;;;;15.39;27.20;100878.47;4493289;31;33498;-80
2022/03/28 08:07:56;;;;;;;7.65;4.00;;;;;;;15.59;26.26;100881.03;4491662;31;33226;-80
2022/03/28 08:10:25;;;;;;;11.43;5.37;;;;;;;15.88;27.00;100870.81;4477258;31;33954;-80
2022/03/28 08:12:53;;;;;;;11.82;4.60;;;;;;;16.06;25.20;100872.59;4492282;31;32748;-80
2022/03/28 08:15:22;;;;;;;10.27;4.90;;;;;;;16.05;25.92;100865.53;4490124;31;34807;-80
2022/03/28 08:17:50;;;;;;;7.47;4.43;;;;;;;15.91;26.72;100864.50;4486475;31;33896;-80
2022/03/28 08:20:18;;;;;;;19.98;4.95;;;;;;;16.23;26.39;100858.41;4478677;31;33833;-80
2022/03/28 08:22:49;;;;;;;9.07;4.22;;;;;;;15.94;27.95;100857.19;4491551;31;33546;-80
2022/03/28 08:25:20;;;;;;;9.45;4.40;;;;;;;15.97;28.34;100862.38;4489612;31;33253;-80
2022/03/28 08:27:48;;;;;;;10.23;5.10;;;;;;;16.60;28.47;100861.88;4485214;31;34184;-80
2022/03/28 08:30:17;;;;;;;12.18;5.43;;;;;;;16.05;29.36;100862.03;4477031;31;33638;-81
2022/03/28 08:32:47;;;;;;;9.07;5.57;;;;;;;16.47;28.16;100852.78;4479332;31;33582;-80
2022/03/28 08:35:15;;;;;;;13.07;6.00;;;;;;;17.00;27.36;100847.34;4492058;31;33564;-80
2022/03/28 08:37:43;;;;;;;15.10;4.62;;;;;;;17.27;27.64;100838.78;4477955;31;33855;-80
2022/03/28 08:40:17;;;;;;;8.90;5.65;;;;;;;16.95;28.66;100836.06;4492358;31;34204;-80
2022/03/28 08:42:45;;;;;;;12.50;4.90;;;;;;;16.71;29.86;100837.31;4492388;31;32969;-80
2022/03/28 08:45:14;;;;;;;9.63;5.32;;;;;;;16.50;29.61;100840.16;4490874;31;33840;-80
2022/03/28 08:47:45;;;;;;;10.07;5.53;;;;;;;16.83;29.21;100834.03;4492169;31;32626;-80
2022/03/28 08:50:34;;;;;;;11.07;5.28;;;;;;;16.70;30.69;100846.25;4482454;31;33935;-80
2022/03/28 08:53:02;;;;;;;10.32;5.05;;;;;;;17.06;29.71;100833.66;4491358;31;33344;-80
2022/03/28 08:55:30;;;;;;;9.13;5.05;;;;;;;17.59;28.53;100818.28;4477618;31;32850;-80
2022/03/28 08:57:58;;;;;;;12.70;6.55;;;;;;;17.62;29.80;100824.31;4463129;31;32689;-80
2022/03/28 09:00:26;;;;;;;10.20;5.72;;;;;;;17.90;27.43;100820.97;4480146;31;32727;-80
2022/03/28 09:02:57;;;;;;;9.88;5.53;;;;;;;17.85;29.34;100816.81;4465880;31;32200;-80
2022/03/28 09:05:33;;;;;;;;;;;;;;;18.05;29.36;100813.88;4493609;31;34635;-80
2022/03/28 09:08:01;;;;;;;8.02;5.50;;;;;;;18.00;28.95;100813.28;4476373;31;33841;-80
2022/03/28 09:10:32;;;;;;;13.35;5.37;;;;;;;17.70;30.08;100823.00;4491059;31;33803;-80
2022/03/28 09:13:07;;;;;;;7.43;4.87;;;;;;;17.80;29.72;100821.56;4477399;31;32256;-80
2022/03/28 09:15:57;;;;;;;9.40;4.68;;;;;;;18.15;28.88;100808.84;4478479;31;34191;-80
2022/03/28 09:18:33;;;;;;;9.30;5.15;;;;;;;18.52;29.12;100802.16;4465768;31;33012;-80
2022/03/28 09:21:04;;;;;;;11.27;6.37;;;;;;;18.30;29.15;100807.06;4491710;31;34050;-80
2022/03/28 09:23:45;;;;;;;12.35;5.53;;;;;;;18.14;28.47;100801.78;4477747;31;33356;-80
2022/03/28 09:26:20;;;;;;;9.02;5.00;;;;;;;18.78;28.65;100792.53;4490964;31;33847;-80
2022/03/28 09:28:56;;;;;;;9.68;5.28;;;;;;;18.71;29.62;100791.22;4489848;31;34357;-80
2022/03/28 09:31:37;;;;;;;7.93;5.50;;;;;;;18.58;27.64;100785.72;4490788;31;33493;-80
2022/03/28 09:34:13;;;;;;;14.98;5.85;;;;;;;18.70;28.50;100789.47;4477503;31;32782;-80
2022/03/28 09:36:45;;;;;;;11.50;5.50;;;;;;;18.88;28.28;100785.66;4491224;31;33965;-80
2022/03/28 09:39:21;;;;;;;7.50;5.22;;;;;;;19.13;27.52;100774.28;4464146;31;32685;-80
2022/03/28 09:42:00;;;;;;;11.25;5.15;;;;;;;19.14;29.93;100773.31;4477734;31;33855;-80
2022/03/28 09:44:37;;;;;;;7.85;5.00;;;;;;;19.33;28.81;100761.44;4491436;31;33127;-80
2022/03/28 09:47:10;;;;;;;9.65;4.80;;;;;;;19.53;29.84;100763.66;4491583;31;34629;-80
2022/03/28 09:49:41;;;;;;;7.78;4.22;;;;;;;19.42;28.99;100758.16;4478213;31;33890;-80
2022/03/28 09:52:09;;;;;;;8.10;5.15;;;;;;;19.56;28.84;100746.50;4477269;31;34322;-80
2022/03/28 09:54:52;;;;;;;9.00;5.00;;;;;;;19.21;30.07;100746.16;4491788;31;33273;-80
2022/03/28 09:57:22;;;;;;;7.65;5.28;;;;;;;19.23;29.66;100747.78;4490591;31;34262;-80
2022/03/28 09:59:51;;;;;;;12.02;5.45;;;;;;;19.54;30.11;100745.75;4493320;31;33873;-80
2022/03/28 10:02:22;;;;;;;17.08;5.47;;;;;;;19.65;29.92;100738.78;4476254;31;33843;-80
2022/03/28 10:04:56;;;;;;;9.15;4.78;;;;;;;20.02;29.60;100738.97;4489463;31;34066;-80
2022/03/28 10:07:24;;;;;;;7.57;5.00;;;;;;;19.71;29.58;100733.97;4476436;31;33067;-81
2022/03/28 10:09:53;;;;;;;7.30;4.70;;;;;;;20.27;30.46;100723.84;4478118;31;33534;-80
2022/03/28 10:12:22;;;;;;;8.10;4.85;;;;;;;19.88;29.04;100721.13;4473693;31;34009;-80
2022/03/28 10:14:54;;;;;;;9.23;4.90;;;;;;;19.98;29.27;100726.72;4478405;31;32820;-80
2022/03/28 10:17:24;;;;;;;9.98;5.37;;;;;;;20.15;29.51;100718.37;4474379;31;33886;-80
2022/03/28 10:19:52;;;;;;;5.57;4.75;;;;;;;19.92;29.06;100719.97;4489256;31;33601;-80
2022/03/28 10:22:34;;;;;;;10.23;4.03;;;;;;;20.43;29.03;100716.47;4491609;31;33987;-80
2022/03/28 10:25:08;;;;;;;6.53;4.65;;;;;;;21.10;28.44;100700.06;4480423;31;32254;-80
2022/03/28 10:27:36;;;;;;;7.22;4.60;;;;;;;20.80;29.11;100695.13;4477950;31;34319;-80
2022/03/28 10:30:32;;;;;;;7.68;4.75;;;;;;;21.18;28.10;100681.56;4482627;31;33903;-80
2022/03/28 10:33:28;;;;;;;7.25;4.70;;;;;;;20.82;29.49;100690.47;4482136;31;33483;-80
2022/03/28 10:35:58;;;;;;;11.77;5.07;;;;;;;22.03;27.58;100673.34;4490727;31;33444;-80
2022/03/28 10:38:26;;;;;;;8.77;4.55;;;;;;;21.03;27.87;100675.50;4494982;31;33868;-80
2022/03/28 10:40:55;;;;;;;8.23;3.90;;;;;;;21.33;29.18;100674.22;4465828;31;34095;-80
2022/03/28 10:43:25;;;;;;;9.57;4.60;;;;;;;21.67;27.77;100662.66;4491755;31;33805;-80
2022/03/28 10:46:01;;;;;;;9.95;4.37;;;;;;;21.19;29.11;100656.44;4492451;31;33065;-81
2022/03/28 10:48:48;;;;;;;18.15;4.90;;;;;;;21.51;28.34;100658.53;4478945;31;33698;-80
2022/03/28 10:51:26;;;;;;;8.13;5.07;;;;;;;21.71;28.88;100649.84;4476910;31;33753;-80
2022/03/28 10:54:03;;;;;;;6.72;4.62;;;;;;;21.52;28.55;100642.31;4492255;31;35048;-80
2022/03/28 10:56:36;;;;;;;9.10;5.07;;;;;;;21.60;27.92;100644.41;4478565;31;32607;-78
2022/03/28 10:59:08;;;;;;;8.88;4.18;;;;;;;21.95;28.28;100625.56;4480124;31;33167;-80
2022/03/28 11:01:37;;;;;;;8.38;4.55;;;;;;;22.49;28.53;100620.34;4488660;31;33698;-79
2022/03/28 11:04:22;;;;;;;7.00;3.95;;;;;;;21.81;28.53;100623.94;4475982;31;32934;-79
2022/03/28 11:07:00;;;;;;;6.30;3.37;;;;;;;21.92;28.37;100617.72;4493035;31;33155;-80
2022/03/28 11:09:50;;;;;;;8.55;3.45;;;;;;;22.97;26.94;100611.97;4470663;31;33286;-80
2022/03/28 11:12:28;;;;;;;8.63;3.87;;;;;;;22.54;29.36;100603.84;4493384;31;33893;-80
2022/03/28 11:14:58;;;;;;;4.97;3.80;;;;;;;23.21;26.90;100597.44;4476528;31;33035;-80
2022/03/28 11:17:36;;;;;;;8.10;4.37;;;;;;;21.94;28.07;100594.28;4491700;31;34355;-81
2022/03/28 11:20:14;;;;;;;6.95;4.15;;;;;;;22.81;27.13;100594.50;4464839;31;32933;-81
2022/03/28 11:22:54;;;;;;;4.40;3.33;;;;;;;22.90;26.23;100591.09;4493984;31;33544;-81
2022/03/28 11:25:34;;;;;;;4.75;3.60;;;;;;;22.55;26.95;100578.66;4478934;31;34232;-81
2022/03/28 11:28:03;;;;;;;7.22;4.00;;;;;;;23.05;26.47;100570.94;4489286;31;33053;-81
2022/03/28 11:30:31;;;;;;;6.85;3.85;;;;;;;22.84;27.23;100565.50;4492807;31;33817;-81
2022/03/28 11:32:59;;;;;;;7.05;3.65;;;;;;;22.92;27.52;100556.78;4477612;31;33900;-82
2022/03/28 11:35:28;;;;;;;5.90;3.83;;;;;;;23.34;26.44;100549.63;4492535;31;33208;-81
2022/03/28 11:37:56;;;;;;;5.78;4.70;;;;;;;24.00;25.57;100535.84;4492654;31;33805;-82